createdAt,value
2023-04-28T00:01:52.579Z,7.80
2023-04-28T00:04:40.981Z,7.80
2023-04-28T00:07:29.424Z,7.80
2023-04-28T00:10:17.537Z,7.70
2023-04-28T00:13:06.996Z,7.70
2023-04-28T00:15:55.072Z,7.80
2023-04-28T00:18:43.186Z,7.70
2023-04-28T00:21:32.102Z,7.70
2023-04-28T00:24:20.191Z,7.60
2023-04-28T00:27:08.329Z,7.50
2023-04-28T00:29:57.820Z,7.60
2023-04-28T00:32:45.891Z,7.60
2023-04-28T00:35:33.974Z,7.60
2023-04-28T00:38:22.453Z,7.60
2023-04-28T00:41:10.912Z,7.60
2023-04-28T00:43:58.995Z,7.60
2023-04-28T00:46:48.855Z,7.60
2023-04-28T00:49:37.141Z,7.50
2023-04-28T00:52:25.246Z,7.40
2023-04-28T00:55:15.920Z,7.50
2023-04-28T00:58:04.045Z,7.40
2023-04-28T01:00:52.181Z,7.40
2023-04-28T01:03:42.132Z,7.40
2023-04-28T01:06:30.908Z,7.40
2023-04-28T01:09:19.350Z,7.40
2023-04-28T01:12:07.715Z,7.40
2023-04-28T01:14:55.810Z,7.30
2023-04-28T01:17:44.121Z,7.40
2023-04-28T01:20:33.625Z,7.30
2023-04-28T01:23:21.785Z,7.30
2023-04-28T01:26:11.212Z,7.30
2023-04-28T01:29:00.150Z,7.40
2023-04-28T01:31:48.385Z,7.40
2023-04-28T01:34:36.532Z,7.40
2023-04-28T01:37:24.917Z,7.40
2023-04-28T01:40:13.612Z,7.30
2023-04-28T01:43:03.038Z,7.30
2023-04-28T01:45:51.423Z,7.20
2023-04-28T01:48:39.510Z,7.30
2023-04-28T01:51:27.972Z,7.30
2023-04-28T01:54:16.480Z,7.30
2023-04-28T01:57:04.844Z,7.30
2023-04-28T01:59:54.395Z,7.30
2023-04-28T02:02:42.495Z,7.30
2023-04-28T02:05:30.665Z,7.30
2023-04-28T02:08:18.717Z,7.30
2023-04-28T02:11:06.813Z,7.30
2023-04-28T02:13:54.899Z,7.30
2023-04-28T02:16:44.316Z,7.20
2023-04-28T02:19:32.410Z,7.20
2023-04-28T02:22:20.481Z,7.20
2023-04-28T02:25:09.208Z,7.20
2023-04-28T02:27:57.390Z,7.20
2023-04-28T02:30:45.507Z,7.20
2023-04-28T02:33:34.951Z,7.30
2023-04-28T02:36:23.408Z,7.30
2023-04-28T02:39:11.745Z,7.30
2023-04-28T02:41:59.964Z,7.30
2023-04-28T02:44:48.066Z,7.30
2023-04-28T02:47:36.412Z,7.30
2023-04-28T02:50:26.457Z,7.30
2023-04-28T02:53:14.672Z,7.40
2023-04-28T02:56:04.586Z,7.40
2023-04-28T02:58:52.680Z,7.30
2023-04-28T03:01:40.869Z,7.30
2023-04-28T03:04:29.077Z,7.30
2023-04-28T03:07:18.588Z,7.30
2023-04-28T03:10:07.181Z,7.30
2023-04-28T03:12:55.232Z,7.30
2023-04-28T03:15:43.374Z,7.20
2023-04-28T03:18:31.459Z,7.30
2023-04-28T03:21:19.559Z,7.30
2023-04-28T03:24:09.186Z,7.30
2023-04-28T03:26:57.313Z,7.20
2023-04-28T03:29:45.400Z,7.20
2023-04-28T03:32:33.524Z,7.30
2023-04-28T03:35:21.678Z,7.30
2023-04-28T03:38:09.820Z,7.30
2023-04-28T03:40:59.233Z,7.30
2023-04-28T03:43:47.345Z,7.30
2023-04-28T03:46:35.448Z,7.20
2023-04-28T03:49:23.656Z,7.20
2023-04-28T03:52:12.042Z,7.20
2023-04-28T03:55:00.248Z,7.20
2023-04-28T03:57:49.669Z,7.20
2023-04-28T04:00:37.757Z,7.20
2023-04-28T04:03:27.246Z,7.10
2023-04-28T04:06:15.565Z,7.10
2023-04-28T04:09:03.795Z,7.10
2023-04-28T04:11:51.901Z,7.10
2023-04-28T04:14:41.707Z,7.00
2023-04-28T04:17:29.810Z,7.00
2023-04-28T04:20:17.958Z,7.00
2023-04-28T04:23:06.057Z,7.00
2023-04-28T04:25:54.194Z,7.10
2023-04-28T04:28:42.274Z,7.00
2023-04-28T04:31:31.816Z,7.00
2023-04-28T04:34:19.918Z,7.00
2023-04-28T04:37:08.004Z,7.00
2023-04-28T04:39:56.082Z,6.90
2023-04-28T04:42:44.132Z,7.00
2023-04-28T04:45:32.245Z,7.00
2023-04-28T04:48:21.670Z,7.00
2023-04-28T04:51:09.800Z,7.00
2023-04-28T04:53:57.871Z,7.00
2023-04-28T04:56:45.977Z,7.00
2023-04-28T04:59:34.081Z,7.00
2023-04-28T05:02:22.304Z,7.00
2023-04-28T05:05:20.652Z,7.00
2023-04-28T05:08:09.754Z,7.00
2023-04-28T05:10:57.854Z,7.00
2023-04-28T05:13:46.157Z,7.10
2023-04-28T05:16:34.350Z,7.10
2023-04-28T05:19:22.519Z,7.10
2023-04-28T05:22:12.531Z,7.20
2023-04-28T05:25:00.705Z,7.30
2023-04-28T05:27:48.803Z,7.40
2023-04-28T05:30:36.933Z,7.40
2023-04-28T05:33:25.313Z,7.50
2023-04-28T05:36:13.707Z,7.60
2023-04-28T05:39:03.180Z,7.60
2023-04-28T05:41:51.219Z,7.60
2023-04-28T05:44:40.643Z,7.70
2023-04-28T05:47:31.284Z,7.80
2023-04-28T05:50:19.565Z,7.80
2023-04-28T05:53:07.948Z,7.90
2023-04-28T05:55:57.397Z,8.00
2023-04-28T05:58:45.713Z,8.00
2023-04-28T06:01:33.920Z,8.10
2023-04-28T06:04:22.312Z,8.20
2023-04-28T06:07:11.174Z,8.30
2023-04-28T06:09:59.275Z,8.40
2023-04-28T06:12:48.667Z,8.50
2023-04-28T06:15:36.840Z,8.60
2023-04-28T06:18:25.746Z,8.60
2023-04-28T06:21:13.859Z,8.70
2023-04-28T06:24:02.359Z,8.80
2023-04-28T06:26:50.419Z,9.00
2023-04-28T06:29:39.847Z,9.10
2023-04-28T06:32:28.068Z,9.20
2023-04-28T06:35:17.216Z,9.30
2023-04-28T06:38:05.329Z,9.40
2023-04-28T06:40:53.371Z,9.50
2023-04-28T06:43:41.450Z,9.60
2023-04-28T06:46:31.748Z,9.80
2023-04-28T06:49:19.902Z,9.90
2023-04-28T06:52:08.922Z,10.00
2023-04-28T06:54:56.969Z,10.10
2023-04-28T06:57:45.075Z,10.20
2023-04-28T07:00:33.368Z,10.30
2023-04-28T07:03:22.853Z,10.40
2023-04-28T07:06:11.698Z,10.60
2023-04-28T07:08:59.770Z,10.70
2023-04-28T07:11:47.868Z,10.80
2023-04-28T07:14:35.969Z,11.00
2023-04-28T07:17:24.035Z,11.10
2023-04-28T07:20:14.029Z,11.30
2023-04-28T07:23:02.121Z,11.50
2023-04-28T07:25:50.214Z,11.60
2023-04-28T07:28:38.295Z,11.70
2023-04-28T07:31:26.836Z,11.70
2023-04-28T07:34:15.223Z,11.70
2023-04-28T07:37:05.102Z,11.70
2023-04-28T07:39:53.913Z,11.80
2023-04-28T07:42:42.361Z,11.90
2023-04-28T07:45:30.536Z,12.10
2023-04-28T07:48:18.699Z,12.30
2023-04-28T07:51:06.830Z,12.40
2023-04-28T07:53:56.288Z,12.50
2023-04-28T07:56:44.413Z,12.60
2023-04-28T07:59:32.774Z,12.60
2023-04-28T08:02:20.983Z,12.70
2023-04-28T08:05:10.076Z,12.80
2023-04-28T08:07:58.727Z,12.90
2023-04-28T08:10:49.761Z,13.00
2023-04-28T08:13:37.818Z,13.10
2023-04-28T08:16:25.974Z,13.20
2023-04-28T08:19:14.103Z,13.30
2023-04-28T08:22:05.742Z,13.20
2023-04-28T08:24:53.878Z,13.20
2023-04-28T08:27:43.376Z,13.30
2023-04-28T08:30:31.834Z,13.40
2023-04-28T08:33:19.932Z,13.50
2023-04-28T08:36:08.380Z,13.50
2023-04-28T08:38:58.944Z,13.60
2023-04-28T08:41:47.207Z,13.60
2023-04-28T08:44:39.780Z,13.60
2023-04-28T08:47:33.200Z,13.70
2023-04-28T08:50:22.243Z,13.70
2023-04-28T08:53:11.944Z,13.80
2023-04-28T08:56:00.351Z,14.00
2023-04-28T08:58:49.413Z,14.10
2023-04-28T09:01:38.945Z,14.10
2023-04-28T09:04:27.953Z,14.20
2023-04-28T09:07:16.416Z,14.30
2023-04-28T09:10:17.054Z,14.40
2023-04-28T09:13:05.388Z,14.50
2023-04-28T09:16:00.257Z,14.60
2023-04-28T09:18:58.455Z,14.60
2023-04-28T09:21:53.701Z,14.70
2023-04-28T09:24:43.835Z,14.80
2023-04-28T09:27:31.879Z,14.90
2023-04-28T09:30:20.222Z,15.00
2023-04-28T09:33:10.796Z,15.10
2023-04-28T09:36:01.202Z,15.00
2023-04-28T09:38:49.301Z,15.20
2023-04-28T09:41:39.698Z,15.30
2023-04-28T09:44:27.725Z,15.30
2023-04-28T09:47:20.978Z,15.30
2023-04-28T09:50:11.832Z,15.40
2023-04-28T09:53:04.057Z,15.40
2023-04-28T09:55:53.346Z,15.40
2023-04-28T09:58:41.804Z,15.40
2023-04-28T10:01:33.612Z,15.40
2023-04-28T10:04:22.262Z,15.50
2023-04-28T10:07:10.527Z,15.60
2023-04-28T10:10:00.099Z,15.70
2023-04-28T10:12:48.537Z,15.90
2023-04-28T10:15:37.297Z,16.00
2023-04-28T10:18:25.353Z,15.90
2023-04-28T10:21:13.911Z,15.80
2023-04-28T10:24:06.933Z,15.70
2023-04-28T10:27:04.153Z,15.60
2023-04-28T10:29:52.267Z,15.60
2023-04-28T10:32:40.733Z,15.50
2023-04-28T10:35:45.356Z,15.40
2023-04-28T10:38:33.383Z,15.40
2023-04-28T10:41:42.318Z,15.30
2023-04-28T10:44:44.119Z,15.30
2023-04-28T10:47:52.208Z,15.30
2023-04-28T10:50:57.746Z,15.30
2023-04-28T10:54:04.565Z,15.10
2023-04-28T10:57:11.544Z,15.10
2023-04-28T11:00:14.464Z,15.00
2023-04-28T11:03:03.991Z,15.00
2023-04-28T11:06:06.987Z,15.00
2023-04-28T11:08:56.576Z,15.00
2023-04-28T11:12:06.016Z,15.10
2023-04-28T11:14:54.029Z,15.10
2023-04-28T11:17:43.083Z,15.00
2023-04-28T11:20:32.624Z,15.00
2023-04-28T11:23:20.806Z,15.00
2023-04-28T11:26:09.166Z,15.00
2023-04-28T11:28:58.378Z,15.10
2023-04-28T11:31:50.907Z,15.20
2023-04-28T11:34:39.078Z,15.30
2023-04-28T11:37:28.497Z,15.30
2023-04-28T11:40:17.310Z,15.40
2023-04-28T11:43:06.670Z,15.30
2023-04-28T11:45:54.799Z,15.40
2023-04-28T11:48:42.868Z,15.50
2023-04-28T11:51:32.275Z,15.50
2023-04-28T11:54:25.704Z,15.50
2023-04-28T11:57:20.267Z,15.60
2023-04-28T12:00:15.229Z,15.60
2023-04-28T12:03:08.531Z,15.80
2023-04-28T12:05:57.304Z,16.10
2023-04-28T12:08:45.592Z,16.30
2023-04-28T12:11:34.978Z,16.30
2023-04-28T12:14:23.028Z,16.30
2023-04-28T12:17:23.813Z,16.40
2023-04-28T12:20:12.703Z,16.40
2023-04-28T12:23:00.745Z,16.50
2023-04-28T12:25:48.927Z,16.40
2023-04-28T12:28:39.665Z,16.50
2023-04-28T12:31:27.873Z,16.50
2023-04-28T12:34:15.920Z,16.50
2023-04-28T12:37:05.655Z,16.40
2023-04-28T12:39:55.392Z,16.30
2023-04-28T12:42:47.897Z,16.10
2023-04-28T12:45:38.914Z,16.00
2023-04-28T12:48:28.068Z,15.80
2023-04-28T12:51:16.101Z,15.50
2023-04-28T12:54:04.145Z,15.30
2023-04-28T12:56:52.451Z,15.30
2023-04-28T12:59:40.634Z,15.10
2023-04-28T13:02:30.089Z,15.10
2023-04-28T13:05:19.474Z,14.90
2023-04-28T13:08:07.574Z,14.80
2023-04-28T13:10:55.592Z,14.60
2023-04-28T13:13:45.186Z,14.40
2023-04-28T13:16:34.711Z,14.30
2023-04-28T13:19:24.104Z,14.20
2023-04-28T13:22:12.390Z,14.30
2023-04-28T13:25:00.501Z,14.20
2023-04-28T13:27:48.561Z,14.20
2023-04-28T13:30:36.773Z,14.20
2023-04-28T13:33:31.019Z,14.10
2023-04-28T13:36:20.403Z,14.10
2023-04-28T13:39:11.462Z,14.00
2023-04-28T13:41:59.961Z,14.00
2023-04-28T13:44:49.295Z,14.00
2023-04-28T13:47:37.460Z,14.00
2023-04-28T13:50:25.749Z,14.00
2023-04-28T13:53:15.461Z,14.00
2023-04-28T13:56:03.561Z,14.00
2023-04-28T13:58:51.612Z,14.00
2023-04-28T14:01:39.734Z,13.90
2023-04-28T14:04:27.899Z,14.00
2023-04-28T14:07:16.134Z,13.90
2023-04-28T14:10:06.525Z,13.90
2023-04-28T14:12:54.537Z,14.00
2023-04-28T14:15:54.733Z,14.00
2023-04-28T14:18:46.307Z,13.90
2023-04-28T14:21:34.625Z,13.80
2023-04-28T14:24:23.721Z,13.80
2023-04-28T14:27:13.092Z,13.80
2023-04-28T14:30:01.217Z,13.70
2023-04-28T14:32:49.393Z,13.70
2023-04-28T14:35:37.546Z,13.60
2023-04-28T14:38:25.676Z,13.60
2023-04-28T14:41:13.672Z,13.60
2023-04-28T14:44:03.059Z,13.70
2023-04-28T14:46:51.797Z,13.70
2023-04-28T14:49:40.258Z,13.70
2023-04-28T14:52:29.157Z,13.80
2023-04-28T14:55:17.218Z,13.70
2023-04-28T14:58:05.254Z,13.70
2023-04-28T15:00:54.692Z,13.70
2023-04-28T15:03:43.472Z,13.70
2023-04-28T15:06:32.072Z,13.80
2023-04-28T15:09:20.110Z,13.90
2023-04-28T15:12:08.417Z,13.80
2023-04-28T15:14:56.570Z,13.80
2023-04-28T15:17:46.284Z,13.80
2023-04-28T15:20:34.370Z,13.80
2023-04-28T15:23:22.391Z,13.90
2023-04-28T15:26:10.931Z,13.80
2023-04-28T15:28:59.218Z,13.80
2023-04-28T15:31:47.312Z,13.90
2023-04-28T15:34:36.906Z,13.90
2023-04-28T15:37:40.795Z,13.80
2023-04-28T15:40:28.855Z,13.80
2023-04-28T15:43:16.924Z,13.70
2023-04-28T15:46:05.273Z,13.60
2023-04-28T15:48:53.365Z,13.50
2023-04-28T15:51:43.103Z,13.40
2023-04-28T15:54:31.097Z,13.40
2023-04-28T15:57:19.102Z,13.40
2023-04-28T16:00:07.731Z,13.40
2023-04-28T16:02:55.966Z,13.50
2023-04-28T16:05:44.321Z,13.40
2023-04-28T16:08:33.700Z,13.40
2023-04-28T16:11:21.730Z,13.40
2023-04-28T16:14:09.822Z,13.30
2023-04-28T16:16:57.973Z,13.30
2023-04-28T16:19:46.013Z,13.30
2023-04-28T16:22:34.101Z,13.30
2023-04-28T16:25:23.864Z,13.30
2023-04-28T16:28:11.923Z,13.30
2023-04-28T16:30:59.939Z,13.30
2023-04-28T16:33:48.167Z,13.30
2023-04-28T16:36:36.476Z,13.30
2023-04-28T16:39:24.583Z,13.30
2023-04-28T16:42:14.063Z,13.30
2023-04-28T16:45:02.146Z,13.30
2023-04-28T16:47:50.225Z,13.30
2023-04-28T16:50:40.807Z,13.30
2023-04-28T16:53:28.970Z,13.20
2023-04-28T16:59:20.526Z,13.20
2023-04-28T17:02:08.867Z,13.30
2023-04-28T17:04:57.134Z,13.30
2023-04-28T17:07:45.176Z,13.30
2023-04-28T17:10:35.720Z,13.20
2023-04-28T17:13:23.776Z,13.20
2023-04-28T17:16:13.639Z,13.20
2023-04-28T17:19:02.654Z,13.20
2023-04-28T17:21:52.926Z,13.20
2023-04-28T17:24:40.948Z,13.20
2023-04-28T17:27:28.969Z,13.20
2023-04-28T17:30:17.096Z,13.20
2023-04-28T17:33:06.840Z,13.30
2023-04-28T17:35:54.943Z,13.20
2023-04-28T17:38:43.014Z,13.20
2023-04-28T17:41:31.191Z,13.20
2023-04-28T17:44:19.197Z,13.10
2023-04-28T17:47:07.309Z,13.10
2023-04-28T17:49:56.782Z,13.10
2023-04-28T17:52:44.818Z,13.00
2023-04-28T17:55:32.864Z,13.10
2023-04-28T17:58:20.964Z,13.10
2023-04-28T18:01:09.440Z,13.10
2023-04-28T18:03:58.739Z,13.10
2023-04-28T18:06:48.118Z,13.10
2023-04-28T18:09:36.233Z,13.10
2023-04-28T18:12:24.498Z,13.00
2023-04-28T18:15:12.731Z,13.00
2023-04-28T18:18:00.755Z,13.00
2023-04-28T18:20:48.905Z,13.00
2023-04-28T18:23:38.456Z,13.00
2023-04-28T18:26:26.546Z,13.00
2023-04-28T18:29:14.616Z,13.00
2023-04-28T18:32:02.820Z,13.00
2023-04-28T18:34:51.092Z,13.10
2023-04-28T18:37:39.452Z,13.10
2023-04-28T18:40:32.570Z,13.10
2023-04-28T18:43:21.737Z,13.10
2023-04-28T18:46:09.770Z,13.00
2023-04-28T18:48:57.821Z,13.00
2023-04-28T18:51:45.819Z,13.00
2023-04-28T18:54:34.205Z,13.00
2023-04-28T18:57:23.581Z,12.90
2023-04-28T19:00:11.673Z,12.90
2023-04-28T19:03:00.148Z,12.90
2023-04-28T19:05:49.130Z,12.90
2023-04-28T19:08:39.073Z,12.90
2023-04-28T19:11:27.158Z,12.90
2023-04-28T19:14:16.511Z,12.90
2023-04-28T19:17:05.161Z,12.90
2023-04-28T19:19:55.590Z,12.90
2023-04-28T19:22:44.265Z,12.90
2023-04-28T19:25:33.792Z,12.90
2023-04-28T19:28:22.976Z,12.90
2023-04-28T19:31:12.415Z,13.00
2023-04-28T19:34:00.824Z,12.90
2023-04-28T19:36:48.864Z,12.90
2023-04-28T19:39:37.112Z,12.90
2023-04-28T19:42:25.161Z,12.90
2023-04-28T19:45:13.239Z,12.90
2023-04-28T19:48:02.659Z,12.90
2023-04-28T19:50:50.773Z,12.80
2023-04-28T19:53:40.478Z,12.80
2023-04-28T19:56:28.611Z,12.70
2023-04-28T19:59:17.736Z,12.70
2023-04-28T20:02:08.251Z,12.70
2023-04-28T20:04:57.696Z,12.70
2023-04-28T20:07:46.190Z,12.70
2023-04-28T20:10:34.232Z,12.60
2023-04-28T20:13:22.284Z,12.70
2023-04-28T20:16:10.381Z,12.60
2023-04-28T20:18:58.509Z,12.50
2023-04-28T20:21:47.988Z,12.50
2023-04-28T20:24:36.038Z,12.50
2023-04-28T20:27:24.105Z,12.50
2023-04-28T20:30:12.244Z,12.50
2023-04-28T20:33:00.273Z,12.50
2023-04-28T20:35:48.426Z,12.50
2023-04-28T20:38:37.919Z,12.50
2023-04-28T20:41:26.263Z,12.50
2023-04-28T20:44:14.342Z,12.60
2023-04-28T20:47:02.448Z,12.60
2023-04-28T20:49:50.702Z,12.50
2023-04-28T20:52:39.071Z,12.50
2023-04-28T20:55:28.914Z,12.50
2023-04-28T20:58:16.975Z,12.50
2023-04-28T21:01:05.024Z,12.60
2023-04-28T21:03:53.351Z,12.60
2023-04-28T21:06:41.561Z,12.50
2023-04-28T21:09:29.695Z,12.50
2023-04-28T21:12:19.267Z,12.40
2023-04-28T21:15:07.761Z,12.40
2023-04-28T21:17:55.877Z,12.40
2023-04-28T21:20:43.898Z,12.40
2023-04-28T21:23:32.194Z,12.40
2023-04-28T21:26:21.950Z,12.40
2023-04-28T21:29:11.401Z,12.50
2023-04-28T21:31:59.470Z,12.50
2023-04-28T21:34:48.336Z,12.40
2023-04-28T21:37:36.403Z,12.40
2023-04-28T21:40:24.551Z,12.40
2023-04-28T21:43:12.589Z,12.40
2023-04-28T21:46:02.033Z,12.30
2023-04-28T21:48:50.106Z,12.30
2023-04-28T21:51:39.229Z,12.20
2023-04-28T21:54:27.765Z,12.20
2023-04-28T21:57:16.090Z,12.30
2023-04-28T22:00:06.313Z,12.30
2023-04-28T22:02:56.399Z,12.30
2023-04-28T22:05:44.902Z,12.30
2023-04-28T22:08:32.993Z,12.40
2023-04-28T22:11:21.041Z,12.40
2023-04-28T22:14:12.056Z,12.40
2023-04-28T22:17:03.386Z,12.40
2023-04-28T22:19:53.273Z,12.40
2023-04-28T22:22:41.663Z,12.40
2023-04-28T22:25:29.771Z,12.50
2023-04-28T22:28:17.914Z,12.40
2023-04-28T22:31:06.252Z,12.40
2023-04-28T22:33:54.323Z,12.50
2023-04-28T22:36:45.005Z,12.40
2023-04-28T22:39:33.067Z,12.40
2023-04-28T22:42:21.115Z,12.50
2023-04-28T22:45:10.197Z,12.50
2023-04-28T22:47:58.507Z,12.50
2023-04-28T22:50:47.365Z,12.50
2023-04-28T22:53:36.776Z,12.50
2023-04-28T22:56:24.805Z,12.50
2023-04-28T22:59:12.939Z,12.50
2023-04-28T23:02:02.343Z,12.50
2023-04-28T23:04:51.169Z,12.60
2023-04-28T23:07:39.390Z,12.60
2023-04-28T23:10:28.737Z,12.60
2023-04-28T23:13:16.806Z,12.60
2023-04-28T23:16:04.911Z,12.50
2023-04-28T23:18:52.972Z,12.50
2023-04-28T23:21:40.997Z,12.50
2023-04-28T23:24:29.042Z,12.50
2023-04-28T23:27:18.670Z,12.50
2023-04-28T23:30:07.592Z,12.50
2023-04-28T23:32:55.769Z,12.50
2023-04-28T23:35:43.947Z,12.50
2023-04-28T23:38:32.051Z,12.60
2023-04-28T23:41:20.073Z,12.60
2023-04-28T23:44:09.801Z,12.60
2023-04-28T23:46:57.777Z,12.70
2023-04-28T23:49:45.811Z,12.70
2023-04-28T23:52:33.792Z,12.70
2023-04-28T23:55:22.273Z,12.70
2023-04-28T23:58:10.263Z,12.70
